ニジネヴァルトフスク の空港の天気 - METARとTAF

Nizhnevartovsk ( USNN / NJC ) - ロシア ニジネヴァルトフスク
飛行場実況気象(Metar)
観測時間05/23 05:30 YEKT (05/23 00:30 UTC)
風向・風速北西 7m/s 瞬間風速12m/s
視程10km以上
天気現象
全天の8割程度の雲 雲底高度 850m
気温2℃
湿度81%
気圧1009hPa
METARUSNN 230030Z 32007G12MPS 9999 BKN028CB 02/M01 Q1009 R03/11//65 NOSIG RMK QFE753
過去の天気等 Google飛行場航空写真 Wunderground天気予報

過去48時間のMETAR

飛行場予報(TAF)
発表時間: 5/23 04:00 YEKT (5/22 23:00 UTC)
予報対象時間: 23日5時 YEKT ~ 24日5時 YEKT
風向・風速北北西 6m/s 瞬間風速 14m/s
視程10km以上
全天の4割程度の雲 雲底高度 610m
23日5時 YEKT ~ 23日11時 YEKT に一時的に
視程2,000m
天気現象しゅう雪雨
全天の4割程度の雲 雲底高度 300m
全天の8割程度の積乱雲 雲底高度 460m
23日11時 YEKT ~ 23日12時 YEKT に徐々に
風向・風速北北西 7m/s 瞬間風速 18m/s
23日20時 YEKT ~ 23日21時 YEKT に徐々に
風向・風速西北西 3m/s
TAF USNN 222300Z 2300/2324 33006G14MPS 9999 SCT020
TEMPO 2300/2306 2000 SHSNRA SCT010 BKN015CB
BECMG 2306/2307 33007G18MPS
BECMG 2315/2316 30003MPS